sensor_id;sensor_type;location;lat;lon;timestamp;temperature;humidity
52621;DHT22;38515;53.160;6.990;2022-08-19T00:01:37;14.60;99.90
52621;DHT22;38515;53.160;6.990;2022-08-19T00:04:08;14.60;99.90
52621;DHT22;38515;53.160;6.990;2022-08-19T00:06:36;14.60;99.90
52621;DHT22;38515;53.160;6.990;2022-08-19T00:09:04;14.60;99.90
52621;DHT22;38515;53.160;6.990;2022-08-19T00:11:31;14.50;99.90
52621;DHT22;38515;53.160;6.990;2022-08-19T00:13:57;14.50;99.90
52621;DHT22;38515;53.160;6.990;2022-08-19T00:16:24;14.50;99.90
52621;DHT22;38515;53.160;6.990;2022-08-19T00:18:50;14.50;99.90
52621;DHT22;38515;53.160;6.990;2022-08-19T00:21:16;14.50;99.90
52621;DHT22;38515;53.160;6.990;2022-08-19T00:23:42;14.40;99.90
52621;DHT22;38515;53.160;6.990;2022-08-19T00:26:09;14.40;99.90
52621;DHT22;38515;53.160;6.990;2022-08-19T00:28:36;14.30;99.90
52621;DHT22;38515;53.160;6.990;2022-08-19T00:31:04;14.30;99.90
52621;DHT22;38515;53.160;6.990;2022-08-19T00:33:31;14.30;99.90
52621;DHT22;38515;53.160;6.990;2022-08-19T00:35:59;14.20;99.90
52621;DHT22;38515;53.160;6.990;2022-08-19T00:38:25;14.20;99.90
52621;DHT22;38515;53.160;6.990;2022-08-19T00:40:51;14.20;99.90
52621;DHT22;38515;53.160;6.990;2022-08-19T00:43:21;14.20;99.90
52621;DHT22;38515;53.160;6.990;2022-08-19T00:45:47;14.20;99.90
52621;DHT22;38515;53.160;6.990;2022-08-19T00:48:14;14.10;99.90
52621;DHT22;38515;53.160;6.990;2022-08-19T00:50:43;13.80;99.90
52621;DHT22;38515;53.160;6.990;2022-08-19T00:53:12;14.10;99.90
52621;DHT22;38515;53.160;6.990;2022-08-19T00:55:41;14.10;99.90
52621;DHT22;38515;53.160;6.990;2022-08-19T00:58:11;14.10;99.90
52621;DHT22;38515;53.160;6.990;2022-08-19T01:00:38;14.00;99.90
52621;DHT22;38515;53.160;6.990;2022-08-19T01:03:08;14.00;99.90
52621;DHT22;38515;53.160;6.990;2022-08-19T01:05:35;14.00;99.90
52621;DHT22;38515;53.160;6.990;2022-08-19T01:08:04;14.00;99.90
52621;DHT22;38515;53.160;6.990;2022-08-19T01:10:35;13.90;99.90
52621;DHT22;38515;53.160;6.990;2022-08-19T01:13:04;13.90;99.90
52621;DHT22;38515;53.160;6.990;2022-08-19T01:15:33;13.90;99.90
52621;DHT22;38515;53.160;6.990;2022-08-19T01:18:02;13.90;99.90
52621;DHT22;38515;53.160;6.990;2022-08-19T01:20:30;13.90;99.90
52621;DHT22;38515;53.160;6.990;2022-08-19T01:22:58;13.90;99.90
52621;DHT22;38515;53.160;6.990;2022-08-19T01:25:29;13.80;99.90
52621;DHT22;38515;53.160;6.990;2022-08-19T01:27:57;13.90;99.90
52621;DHT22;38515;53.160;6.990;2022-08-19T01:30:27;13.90;99.90
52621;DHT22;38515;53.160;6.990;2022-08-19T01:32:54;13.80;99.90
52621;DHT22;38515;53.160;6.990;2022-08-19T01:35:21;13.80;99.90
52621;DHT22;38515;53.160;6.990;2022-08-19T01:40:21;13.70;99.90
52621;DHT22;38515;53.160;6.990;2022-08-19T01:42:48;13.70;99.90
52621;DHT22;38515;53.160;6.990;2022-08-19T01:45:16;13.70;99.90
52621;DHT22;38515;53.160;6.990;2022-08-19T01:47:42;13.70;99.90
52621;DHT22;38515;53.160;6.990;2022-08-19T01:50:09;13.70;99.90
52621;DHT22;38515;53.160;6.990;2022-08-19T01:52:37;13.60;99.90
52621;DHT22;38515;53.160;6.990;2022-08-19T01:55:06;13.60;99.90
52621;DHT22;38515;53.160;6.990;2022-08-19T01:57:33;13.50;99.90
52621;DHT22;38515;53.160;6.990;2022-08-19T01:59:59;13.50;99.90
52621;DHT22;38515;53.160;6.990;2022-08-19T02:02:28;13.50;99.90
52621;DHT22;38515;53.160;6.990;2022-08-19T02:04:54;13.40;99.90
52621;DHT22;38515;53.160;6.990;2022-08-19T02:07:20;13.40;99.90
52621;DHT22;38515;53.160;6.990;2022-08-19T02:09:47;13.40;99.90
52621;DHT22;38515;53.160;6.990;2022-08-19T02:12:14;13.40;99.90
52621;DHT22;38515;53.160;6.990;2022-08-19T02:14:40;13.30;99.90
52621;DHT22;38515;53.160;6.990;2022-08-19T02:17:06;13.30;99.90
52621;DHT22;38515;53.160;6.990;2022-08-19T02:19:32;13.30;99.90
52621;DHT22;38515;53.160;6.990;2022-08-19T02:21:59;13.20;99.90
52621;DHT22;38515;53.160;6.990;2022-08-19T02:24:26;13.20;99.90
52621;DHT22;38515;53.160;6.990;2022-08-19T02:26:52;13.20;99.90
52621;DHT22;38515;53.160;6.990;2022-08-19T02:29:18;13.20;99.90
52621;DHT22;38515;53.160;6.990;2022-08-19T02:31:43;13.30;99.90
52621;DHT22;38515;53.160;6.990;2022-08-19T02:34:10;13.40;99.90
52621;DHT22;38515;53.160;6.990;2022-08-19T02:36:35;13.50;99.90
52621;DHT22;38515;53.160;6.990;2022-08-19T02:39:01;13.50;99.90
52621;DHT22;38515;53.160;6.990;2022-08-19T02:41:29;13.60;99.90
52621;DHT22;38515;53.160;6.990;2022-08-19T02:43:57;13.50;99.90
52621;DHT22;38515;53.160;6.990;2022-08-19T02:46:28;13.50;99.90
52621;DHT22;38515;53.160;6.990;2022-08-19T02:48:57;13.50;99.90
52621;DHT22;38515;53.160;6.990;2022-08-19T02:51:28;13.50;99.90
52621;DHT22;38515;53.160;6.990;2022-08-19T02:53:54;13.40;99.90
52621;DHT22;38515;53.160;6.990;2022-08-19T02:56:20;13.40;99.90
52621;DHT22;38515;53.160;6.990;2022-08-19T02:58:47;13.40;99.90
52621;DHT22;38515;53.160;6.990;2022-08-19T03:01:25;13.30;99.90
52621;DHT22;38515;53.160;6.990;2022-08-19T03:03:52;13.30;99.90
52621;DHT22;38515;53.160;6.990;2022-08-19T03:06:19;13.20;99.90
52621;DHT22;38515;53.160;6.990;2022-08-19T03:08:46;13.20;99.90
52621;DHT22;38515;53.160;6.990;2022-08-19T03:11:17;13.10;99.90
52621;DHT22;38515;53.160;6.990;2022-08-19T03:13:43;13.10;99.90
52621;DHT22;38515;53.160;6.990;2022-08-19T03:16:10;13.10;99.90
52621;DHT22;38515;53.160;6.990;2022-08-19T03:18:36;13.00;99.90
52621;DHT22;38515;53.160;6.990;2022-08-19T03:21:02;13.00;99.90
52621;DHT22;38515;53.160;6.990;2022-08-19T03:23:28;13.00;99.90
52621;DHT22;38515;53.160;6.990;2022-08-19T03:25:54;13.10;99.90
52621;DHT22;38515;53.160;6.990;2022-08-19T03:28:20;13.10;99.90
52621;DHT22;38515;53.160;6.990;2022-08-19T03:30:59;13.00;99.90
52621;DHT22;38515;53.160;6.990;2022-08-19T03:33:25;13.10;99.90
52621;DHT22;38515;53.160;6.990;2022-08-19T03:36:05;13.00;99.90
52621;DHT22;38515;53.160;6.990;2022-08-19T03:38:34;13.00;99.90
52621;DHT22;38515;53.160;6.990;2022-08-19T03:41:06;13.00;99.90
52621;DHT22;38515;53.160;6.990;2022-08-19T03:43:35;13.10;99.90
52621;DHT22;38515;53.160;6.990;2022-08-19T03:46:05;13.10;99.90
52621;DHT22;38515;53.160;6.990;2022-08-19T03:48:32;13.10;99.90
52621;DHT22;38515;53.160;6.990;2022-08-19T03:50:59;13.00;99.90
52621;DHT22;38515;53.160;6.990;2022-08-19T03:53:27;13.00;99.90
52621;DHT22;38515;53.160;6.990;2022-08-19T03:55:53;13.00;99.90
52621;DHT22;38515;53.160;6.990;2022-08-19T03:58:20;13.00;99.90
52621;DHT22;38515;53.160;6.990;2022-08-19T04:00:46;13.00;99.90
52621;DHT22;38515;53.160;6.990;2022-08-19T04:03:12;13.00;99.90
52621;DHT22;38515;53.160;6.990;2022-08-19T04:05:38;13.00;99.90
52621;DHT22;38515;53.160;6.990;2022-08-19T04:08:04;12.90;99.90
52621;DHT22;38515;53.160;6.990;2022-08-19T04:10:35;12.90;99.90
52621;DHT22;38515;53.160;6.990;2022-08-19T04:13:02;12.90;99.90
52621;DHT22;38515;53.160;6.990;2022-08-19T04:15:29;12.80;99.90
52621;DHT22;38515;53.160;6.990;2022-08-19T04:17:59;12.80;99.90
52621;DHT22;38515;53.160;6.990;2022-08-19T04:20:24;12.80;99.90
52621;DHT22;38515;53.160;6.990;2022-08-19T04:22:50;12.80;99.90
52621;DHT22;38515;53.160;6.990;2022-08-19T04:25:16;12.80;99.90
52621;DHT22;38515;53.160;6.990;2022-08-19T04:27:42;12.70;99.90
52621;DHT22;38515;53.160;6.990;2022-08-19T04:30:13;12.70;99.90
52621;DHT22;38515;53.160;6.990;2022-08-19T04:32:39;12.70;99.90
52621;DHT22;38515;53.160;6.990;2022-08-19T04:35:05;12.70;99.90
52621;DHT22;38515;53.160;6.990;2022-08-19T04:37:31;12.60;99.90
52621;DHT22;38515;53.160;6.990;2022-08-19T04:39:59;12.60;99.90
52621;DHT22;38515;53.160;6.990;2022-08-19T04:42:44;12.60;99.90
52621;DHT22;38515;53.160;6.990;2022-08-19T04:45:12;12.50;99.90
52621;DHT22;38515;53.160;6.990;2022-08-19T04:47:40;12.50;99.90
52621;DHT22;38515;53.160;6.990;2022-08-19T04:50:07;12.50;99.90
52621;DHT22;38515;53.160;6.990;2022-08-19T04:52:38;12.50;99.90
52621;DHT22;38515;53.160;6.990;2022-08-19T04:55:09;12.50;99.90
52621;DHT22;38515;53.160;6.990;2022-08-19T04:57:34;12.50;99.90
52621;DHT22;38515;53.160;6.990;2022-08-19T05:00:03;12.50;99.90
52621;DHT22;38515;53.160;6.990;2022-08-19T05:02:29;12.50;99.90
52621;DHT22;38515;53.160;6.990;2022-08-19T05:04:57;12.50;99.90
52621;DHT22;38515;53.160;6.990;2022-08-19T05:07:25;12.50;99.90
52621;DHT22;38515;53.160;6.990;2022-08-19T05:09:51;12.50;99.90
52621;DHT22;38515;53.160;6.990;2022-08-19T05:12:17;12.50;99.90
52621;DHT22;38515;53.160;6.990;2022-08-19T05:14:44;12.50;99.90
52621;DHT22;38515;53.160;6.990;2022-08-19T05:17:10;12.50;99.90
52621;DHT22;38515;53.160;6.990;2022-08-19T05:19:36;12.50;99.90
52621;DHT22;38515;53.160;6.990;2022-08-19T05:22:20;12.60;99.90
52621;DHT22;38515;53.160;6.990;2022-08-19T05:25:07;12.60;99.90
52621;DHT22;38515;53.160;6.990;2022-08-19T05:27:34;12.60;99.90
52621;DHT22;38515;53.160;6.990;2022-08-19T05:30:00;12.70;99.90
52621;DHT22;38515;53.160;6.990;2022-08-19T05:32:26;12.70;99.90
52621;DHT22;38515;53.160;6.990;2022-08-19T05:34:52;12.70;99.90
52621;DHT22;38515;53.160;6.990;2022-08-19T05:37:17;12.80;99.90
52621;DHT22;38515;53.160;6.990;2022-08-19T05:39:43;12.80;99.90
52621;DHT22;38515;53.160;6.990;2022-08-19T05:42:11;12.90;99.90
52621;DHT22;38515;53.160;6.990;2022-08-19T05:44:40;12.90;99.90
52621;DHT22;38515;53.160;6.990;2022-08-19T05:47:12;13.00;99.90
52621;DHT22;38515;53.160;6.990;2022-08-19T05:49:38;13.10;99.90
52621;DHT22;38515;53.160;6.990;2022-08-19T05:52:05;13.20;99.90
52621;DHT22;38515;53.160;6.990;2022-08-19T05:54:32;13.20;99.90
52621;DHT22;38515;53.160;6.990;2022-08-19T05:57:00;13.50;99.90
52621;DHT22;38515;53.160;6.990;2022-08-19T05:59:26;13.70;99.90
52621;DHT22;38515;53.160;6.990;2022-08-19T06:01:52;13.90;99.90
52621;DHT22;38515;53.160;6.990;2022-08-19T06:04:22;14.10;99.90
52621;DHT22;38515;53.160;6.990;2022-08-19T06:06:50;14.60;99.90
52621;DHT22;38515;53.160;6.990;2022-08-19T06:09:18;15.50;99.90
52621;DHT22;38515;53.160;6.990;2022-08-19T06:11:49;16.40;99.90
52621;DHT22;38515;53.160;6.990;2022-08-19T06:14:23;17.30;99.90
52621;DHT22;38515;53.160;6.990;2022-08-19T06:16:49;18.00;99.90
52621;DHT22;38515;53.160;6.990;2022-08-19T06:19:19;18.60;99.90
52621;DHT22;38515;53.160;6.990;2022-08-19T06:21:48;19.10;99.90
52621;DHT22;38515;53.160;6.990;2022-08-19T06:24:18;19.40;99.90
52621;DHT22;38515;53.160;6.990;2022-08-19T06:26:47;19.60;99.90
52621;DHT22;38515;53.160;6.990;2022-08-19T06:29:14;19.90;99.90
52621;DHT22;38515;53.160;6.990;2022-08-19T06:31:43;20.00;99.90
52621;DHT22;38515;53.160;6.990;2022-08-19T06:34:10;20.20;99.90
52621;DHT22;38515;53.160;6.990;2022-08-19T06:36:38;20.40;99.90
52621;DHT22;38515;53.160;6.990;2022-08-19T06:39:14;20.80;99.90
52621;DHT22;38515;53.160;6.990;2022-08-19T06:41:44;21.30;99.90
52621;DHT22;38515;53.160;6.990;2022-08-19T06:44:10;21.60;99.90
52621;DHT22;38515;53.160;6.990;2022-08-19T06:46:38;21.80;99.90
52621;DHT22;38515;53.160;6.990;2022-08-19T06:49:04;21.80;99.90
52621;DHT22;38515;53.160;6.990;2022-08-19T06:51:30;21.70;99.90
52621;DHT22;38515;53.160;6.990;2022-08-19T06:53:58;21.60;99.90
52621;DHT22;38515;53.160;6.990;2022-08-19T06:56:28;21.60;99.90
52621;DHT22;38515;53.160;6.990;2022-08-19T06:59:00;21.40;99.90
52621;DHT22;38515;53.160;6.990;2022-08-19T07:01:27;21.30;99.90
52621;DHT22;38515;53.160;6.990;2022-08-19T07:03:53;21.20;99.90
52621;DHT22;38515;53.160;6.990;2022-08-19T07:06:19;21.10;99.90
52621;DHT22;38515;53.160;6.990;2022-08-19T07:08:47;21.10;99.90
52621;DHT22;38515;53.160;6.990;2022-08-19T07:11:15;21.20;99.90
52621;DHT22;38515;53.160;6.990;2022-08-19T07:13:43;21.20;99.90
52621;DHT22;38515;53.160;6.990;2022-08-19T07:16:12;21.30;99.90
52621;DHT22;38515;53.160;6.990;2022-08-19T07:18:39;21.50;99.90
52621;DHT22;38515;53.160;6.990;2022-08-19T07:21:09;21.70;99.90
52621;DHT22;38515;53.160;6.990;2022-08-19T07:23:35;21.70;99.90
52621;DHT22;38515;53.160;6.990;2022-08-19T07:26:15;21.90;99.90
52621;DHT22;38515;53.160;6.990;2022-08-19T07:28:41;22.00;99.90
52621;DHT22;38515;53.160;6.990;2022-08-19T07:31:13;22.10;99.90
52621;DHT22;38515;53.160;6.990;2022-08-19T07:33:40;22.30;99.90
52621;DHT22;38515;53.160;6.990;2022-08-19T07:36:10;22.40;99.90
52621;DHT22;38515;53.160;6.990;2022-08-19T07:38:37;22.50;99.90
52621;DHT22;38515;53.160;6.990;2022-08-19T07:41:04;22.60;99.90
52621;DHT22;38515;53.160;6.990;2022-08-19T07:43:30;22.70;99.90
52621;DHT22;38515;53.160;6.990;2022-08-19T07:45:57;22.80;99.90
52621;DHT22;38515;53.160;6.990;2022-08-19T07:48:24;22.80;99.90
52621;DHT22;38515;53.160;6.990;2022-08-19T07:50:53;22.90;99.90
52621;DHT22;38515;53.160;6.990;2022-08-19T07:53:21;23.00;99.90
52621;DHT22;38515;53.160;6.990;2022-08-19T07:55:47;23.00;99.90
52621;DHT22;38515;53.160;6.990;2022-08-19T07:58:16;23.10;99.90
52621;DHT22;38515;53.160;6.990;2022-08-19T08:00:44;23.00;99.90
52621;DHT22;38515;53.160;6.990;2022-08-19T08:03:11;23.00;99.90
52621;DHT22;38515;53.160;6.990;2022-08-19T08:05:37;23.00;99.90
52621;DHT22;38515;53.160;6.990;2022-08-19T08:08:22;23.10;99.90
52621;DHT22;38515;53.160;6.990;2022-08-19T08:11:07;23.20;99.90
52621;DHT22;38515;53.160;6.990;2022-08-19T08:13:34;23.20;99.90
52621;DHT22;38515;53.160;6.990;2022-08-19T08:16:01;23.40;99.90
52621;DHT22;38515;53.160;6.990;2022-08-19T08:18:28;23.50;99.90
52621;DHT22;38515;53.160;6.990;2022-08-19T08:20:55;23.60;99.90
52621;DHT22;38515;53.160;6.990;2022-08-19T08:23:21;23.60;99.90
52621;DHT22;38515;53.160;6.990;2022-08-19T08:25:48;23.70;99.90
52621;DHT22;38515;53.160;6.990;2022-08-19T08:28:15;23.60;99.90
52621;DHT22;38515;53.160;6.990;2022-08-19T08:30:41;23.60;99.90
52621;DHT22;38515;53.160;6.990;2022-08-19T08:33:09;23.80;99.90
52621;DHT22;38515;53.160;6.990;2022-08-19T08:35:36;23.60;99.90
52621;DHT22;38515;53.160;6.990;2022-08-19T08:38:02;23.70;99.90
52621;DHT22;38515;53.160;6.990;2022-08-19T08:40:48;23.60;99.90
52621;DHT22;38515;53.160;6.990;2022-08-19T08:43:28;23.50;99.90
52621;DHT22;38515;53.160;6.990;2022-08-19T08:46:07;23.40;99.90
52621;DHT22;38515;53.160;6.990;2022-08-19T08:48:44;23.40;99.90
52621;DHT22;38515;53.160;6.990;2022-08-19T08:51:18;23.40;99.90
52621;DHT22;38515;53.160;6.990;2022-08-19T08:53:48;23.40;99.90
52621;DHT22;38515;53.160;6.990;2022-08-19T08:56:15;23.40;99.90
52621;DHT22;38515;53.160;6.990;2022-08-19T08:58:48;23.50;99.90
52621;DHT22;38515;53.160;6.990;2022-08-19T09:01:16;23.60;99.90
52621;DHT22;38515;53.160;6.990;2022-08-19T09:03:43;23.60;99.90
52621;DHT22;38515;53.160;6.990;2022-08-19T09:06:20;23.70;99.90
52621;DHT22;38515;53.160;6.990;2022-08-19T09:08:54;23.60;99.90
52621;DHT22;38515;53.160;6.990;2022-08-19T09:16:36;23.70;99.90
52621;DHT22;38515;53.160;6.990;2022-08-19T09:19:07;23.80;99.90
52621;DHT22;38515;53.160;6.990;2022-08-19T09:21:33;23.50;99.90
52621;DHT22;38515;53.160;6.990;2022-08-19T09:24:01;24.00;99.90
52621;DHT22;38515;53.160;6.990;2022-08-19T09:26:27;24.10;99.90
52621;DHT22;38515;53.160;6.990;2022-08-19T09:28:53;24.20;99.90
52621;DHT22;38515;53.160;6.990;2022-08-19T09:31:23;24.30;99.90
52621;DHT22;38515;53.160;6.990;2022-08-19T09:33:50;24.30;99.90
52621;DHT22;38515;53.160;6.990;2022-08-19T09:36:19;24.40;99.90
52621;DHT22;38515;53.160;6.990;2022-08-19T09:38:45;24.40;99.90
52621;DHT22;38515;53.160;6.990;2022-08-19T09:41:15;24.40;99.90
52621;DHT22;38515;53.160;6.990;2022-08-19T09:43:44;24.50;99.90
52621;DHT22;38515;53.160;6.990;2022-08-19T09:46:11;24.70;99.90
52621;DHT22;38515;53.160;6.990;2022-08-19T09:48:38;24.70;99.90
52621;DHT22;38515;53.160;6.990;2022-08-19T09:53:34;24.60;99.90
52621;DHT22;38515;53.160;6.990;2022-08-19T09:56:01;24.60;99.90
52621;DHT22;38515;53.160;6.990;2022-08-19T09:58:28;24.60;99.90
52621;DHT22;38515;53.160;6.990;2022-08-19T10:00:57;24.80;99.90
52621;DHT22;38515;53.160;6.990;2022-08-19T10:03:24;24.80;99.90
52621;DHT22;38515;53.160;6.990;2022-08-19T10:05:50;24.90;99.90
52621;DHT22;38515;53.160;6.990;2022-08-19T10:08:21;25.10;99.90
52621;DHT22;38515;53.160;6.990;2022-08-19T10:10:47;25.10;99.90
52621;DHT22;38515;53.160;6.990;2022-08-19T10:13:16;25.20;99.90
52621;DHT22;38515;53.160;6.990;2022-08-19T10:15:42;25.20;99.90
52621;DHT22;38515;53.160;6.990;2022-08-19T10:18:08;25.30;99.90
52621;DHT22;38515;53.160;6.990;2022-08-19T10:20:34;25.50;99.90
52621;DHT22;38515;53.160;6.990;2022-08-19T10:23:02;25.60;99.90
52621;DHT22;38515;53.160;6.990;2022-08-19T10:25:28;25.70;99.90
52621;DHT22;38515;53.160;6.990;2022-08-19T10:27:54;25.60;99.90
52621;DHT22;38515;53.160;6.990;2022-08-19T10:30:20;25.60;99.90
52621;DHT22;38515;53.160;6.990;2022-08-19T10:32:47;25.50;99.90
52621;DHT22;38515;53.160;6.990;2022-08-19T10:35:13;25.50;99.90
52621;DHT22;38515;53.160;6.990;2022-08-19T10:37:40;25.50;99.90
52621;DHT22;38515;53.160;6.990;2022-08-19T10:40:07;25.50;99.90
52621;DHT22;38515;53.160;6.990;2022-08-19T10:42:34;25.60;99.90
52621;DHT22;38515;53.160;6.990;2022-08-19T10:45:01;25.70;99.90
52621;DHT22;38515;53.160;6.990;2022-08-19T10:47:28;25.90;99.90
52621;DHT22;38515;53.160;6.990;2022-08-19T10:49:54;25.90;99.90
52621;DHT22;38515;53.160;6.990;2022-08-19T10:52:41;25.90;99.90
52621;DHT22;38515;53.160;6.990;2022-08-19T10:55:08;25.70;99.90
52621;DHT22;38515;53.160;6.990;2022-08-19T10:57:53;25.70;99.90
52621;DHT22;38515;53.160;6.990;2022-08-19T11:00:20;25.80;99.90
52621;DHT22;38515;53.160;6.990;2022-08-19T11:02:46;25.90;99.90
52621;DHT22;38515;53.160;6.990;2022-08-19T11:05:12;26.00;99.90
52621;DHT22;38515;53.160;6.990;2022-08-19T11:07:40;26.00;99.90
52621;DHT22;38515;53.160;6.990;2022-08-19T11:10:08;26.00;99.90
52621;DHT22;38515;53.160;6.990;2022-08-19T11:12:37;26.00;99.90
52621;DHT22;38515;53.160;6.990;2022-08-19T11:15:06;26.00;99.90
52621;DHT22;38515;53.160;6.990;2022-08-19T11:17:34;25.80;99.90
52621;DHT22;38515;53.160;6.990;2022-08-19T11:20:02;25.70;99.90
52621;DHT22;38515;53.160;6.990;2022-08-19T11:22:30;25.50;99.90
52621;DHT22;38515;53.160;6.990;2022-08-19T11:24:56;25.50;99.90
52621;DHT22;38515;53.160;6.990;2022-08-19T11:27:22;25.50;99.90
52621;DHT22;38515;53.160;6.990;2022-08-19T11:29:48;25.50;99.90
52621;DHT22;38515;53.160;6.990;2022-08-19T11:32:14;25.50;99.90
52621;DHT22;38515;53.160;6.990;2022-08-19T11:34:43;25.50;99.90
52621;DHT22;38515;53.160;6.990;2022-08-19T11:37:08;25.60;99.90
52621;DHT22;38515;53.160;6.990;2022-08-19T11:39:35;25.70;99.90
52621;DHT22;38515;53.160;6.990;2022-08-19T11:42:04;25.80;99.90
52621;DHT22;38515;53.160;6.990;2022-08-19T11:44:49;25.80;99.90
52621;DHT22;38515;53.160;6.990;2022-08-19T11:47:15;25.70;99.90
52621;DHT22;38515;53.160;6.990;2022-08-19T11:49:41;25.70;99.90
52621;DHT22;38515;53.160;6.990;2022-08-19T11:52:08;25.80;99.90
52621;DHT22;38515;53.160;6.990;2022-08-19T11:54:35;25.90;99.90
52621;DHT22;38515;53.160;6.990;2022-08-19T11:57:03;25.90;99.90
52621;DHT22;38515;53.160;6.990;2022-08-19T11:59:29;26.00;99.90
52621;DHT22;38515;53.160;6.990;2022-08-19T12:01:55;26.10;99.90
52621;DHT22;38515;53.160;6.990;2022-08-19T12:04:22;26.20;99.90
52621;DHT22;38515;53.160;6.990;2022-08-19T12:06:48;26.30;99.90
52621;DHT22;38515;53.160;6.990;2022-08-19T12:09:16;26.50;99.90
52621;DHT22;38515;53.160;6.990;2022-08-19T12:11:43;26.50;99.90
52621;DHT22;38515;53.160;6.990;2022-08-19T12:14:11;26.40;99.90
52621;DHT22;38515;53.160;6.990;2022-08-19T12:16:38;26.40;99.90
52621;DHT22;38515;53.160;6.990;2022-08-19T12:19:04;26.40;99.90
52621;DHT22;38515;53.160;6.990;2022-08-19T12:21:34;26.50;99.90
52621;DHT22;38515;53.160;6.990;2022-08-19T12:24:01;26.60;99.90
52621;DHT22;38515;53.160;6.990;2022-08-19T12:26:29;26.60;99.90
52621;DHT22;38515;53.160;6.990;2022-08-19T12:28:56;26.60;99.90
52621;DHT22;38515;53.160;6.990;2022-08-19T12:31:24;26.60;99.90
52621;DHT22;38515;53.160;6.990;2022-08-19T12:33:50;26.40;99.90
52621;DHT22;38515;53.160;6.990;2022-08-19T12:36:18;26.30;99.90
52621;DHT22;38515;53.160;6.990;2022-08-19T12:38:44;26.10;99.90
52621;DHT22;38515;53.160;6.990;2022-08-19T12:41:13;26.00;99.90
52621;DHT22;38515;53.160;6.990;2022-08-19T12:43:39;26.00;99.90
52621;DHT22;38515;53.160;6.990;2022-08-19T12:46:08;25.90;99.90
52621;DHT22;38515;53.160;6.990;2022-08-19T12:48:34;25.80;99.90
52621;DHT22;38515;53.160;6.990;2022-08-19T12:51:00;25.80;99.90
52621;DHT22;38515;53.160;6.990;2022-08-19T12:53:27;26.00;99.90
52621;DHT22;38515;53.160;6.990;2022-08-19T12:55:56;26.00;99.90
52621;DHT22;38515;53.160;6.990;2022-08-19T12:58:23;26.00;99.90
52621;DHT22;38515;53.160;6.990;2022-08-19T13:00:49;25.90;99.90
52621;DHT22;38515;53.160;6.990;2022-08-19T13:03:15;25.90;99.90
52621;DHT22;38515;53.160;6.990;2022-08-19T13:05:41;25.90;99.90
52621;DHT22;38515;53.160;6.990;2022-08-19T13:08:07;25.90;99.90
52621;DHT22;38515;53.160;6.990;2022-08-19T13:10:35;25.80;99.90
52621;DHT22;38515;53.160;6.990;2022-08-19T13:13:03;26.10;99.90
52621;DHT22;38515;53.160;6.990;2022-08-19T13:15:33;26.20;99.90
52621;DHT22;38515;53.160;6.990;2022-08-19T13:17:59;26.20;99.90
52621;DHT22;38515;53.160;6.990;2022-08-19T13:20:26;26.30;99.90
52621;DHT22;38515;53.160;6.990;2022-08-19T13:22:52;26.10;99.90
52621;DHT22;38515;53.160;6.990;2022-08-19T13:25:19;26.00;99.90
52621;DHT22;38515;53.160;6.990;2022-08-19T13:27:46;25.90;99.90
52621;DHT22;38515;53.160;6.990;2022-08-19T13:30:15;25.80;99.90
52621;DHT22;38515;53.160;6.990;2022-08-19T13:32:59;25.70;99.90
52621;DHT22;38515;53.160;6.990;2022-08-19T13:35:39;25.60;99.90
52621;DHT22;38515;53.160;6.990;2022-08-19T13:38:06;25.50;99.90
52621;DHT22;38515;53.160;6.990;2022-08-19T13:40:33;25.50;99.90
52621;DHT22;38515;53.160;6.990;2022-08-19T13:43:00;25.50;99.90
52621;DHT22;38515;53.160;6.990;2022-08-19T13:45:28;25.60;99.90
52621;DHT22;38515;53.160;6.990;2022-08-19T13:47:56;25.50;99.90
52621;DHT22;38515;53.160;6.990;2022-08-19T13:50:28;25.60;99.90
52621;DHT22;38515;53.160;6.990;2022-08-19T13:52:55;25.60;99.90
52621;DHT22;38515;53.160;6.990;2022-08-19T13:55:22;25.60;99.90
52621;DHT22;38515;53.160;6.990;2022-08-19T13:57:52;25.60;99.90
52621;DHT22;38515;53.160;6.990;2022-08-19T14:00:19;25.70;99.90
52621;DHT22;38515;53.160;6.990;2022-08-19T14:02:46;25.80;99.90
52621;DHT22;38515;53.160;6.990;2022-08-19T14:05:14;25.70;99.90
52621;DHT22;38515;53.160;6.990;2022-08-19T14:07:40;25.80;99.90
52621;DHT22;38515;53.160;6.990;2022-08-19T14:10:09;25.70;99.90
52621;DHT22;38515;53.160;6.990;2022-08-19T14:12:36;25.80;99.90
52621;DHT22;38515;53.160;6.990;2022-08-19T14:15:03;25.80;99.90
52621;DHT22;38515;53.160;6.990;2022-08-19T14:17:30;25.80;99.90
52621;DHT22;38515;53.160;6.990;2022-08-19T14:19:58;25.70;99.90
52621;DHT22;38515;53.160;6.990;2022-08-19T14:22:30;25.70;99.90
52621;DHT22;38515;53.160;6.990;2022-08-19T14:24:57;25.60;99.90
52621;DHT22;38515;53.160;6.990;2022-08-19T14:27:23;25.50;99.90
52621;DHT22;38515;53.160;6.990;2022-08-19T14:29:51;25.40;99.90
52621;DHT22;38515;53.160;6.990;2022-08-19T14:32:17;25.20;99.90
52621;DHT22;38515;53.160;6.990;2022-08-19T14:34:43;24.90;99.90
52621;DHT22;38515;53.160;6.990;2022-08-19T14:37:12;24.60;99.90
52621;DHT22;38515;53.160;6.990;2022-08-19T14:39:40;24.40;99.90
52621;DHT22;38515;53.160;6.990;2022-08-19T14:42:08;24.30;99.90
52621;DHT22;38515;53.160;6.990;2022-08-19T14:44:35;24.20;99.90
52621;DHT22;38515;53.160;6.990;2022-08-19T14:47:01;24.00;99.90
52621;DHT22;38515;53.160;6.990;2022-08-19T14:49:27;23.80;99.90
52621;DHT22;38515;53.160;6.990;2022-08-19T14:51:53;23.80;99.90
52621;DHT22;38515;53.160;6.990;2022-08-19T14:54:19;23.80;99.90
52621;DHT22;38515;53.160;6.990;2022-08-19T14:56:45;23.80;99.90
52621;DHT22;38515;53.160;6.990;2022-08-19T14:59:10;23.80;99.90
52621;DHT22;38515;53.160;6.990;2022-08-19T15:01:36;23.80;99.90
52621;DHT22;38515;53.160;6.990;2022-08-19T15:04:02;23.70;99.90
52621;DHT22;38515;53.160;6.990;2022-08-19T15:06:29;23.80;99.90
52621;DHT22;38515;53.160;6.990;2022-08-19T15:08:55;23.80;99.90
52621;DHT22;38515;53.160;6.990;2022-08-19T15:11:23;23.80;99.90
52621;DHT22;38515;53.160;6.990;2022-08-19T15:13:50;23.80;99.90
52621;DHT22;38515;53.160;6.990;2022-08-19T15:16:17;23.90;99.90
52621;DHT22;38515;53.160;6.990;2022-08-19T15:18:44;23.90;99.90
52621;DHT22;38515;53.160;6.990;2022-08-19T15:21:12;23.90;99.90
52621;DHT22;38515;53.160;6.990;2022-08-19T15:23:39;23.90;99.90
52621;DHT22;38515;53.160;6.990;2022-08-19T15:26:05;23.80;99.90
52621;DHT22;38515;53.160;6.990;2022-08-19T15:28:33;23.70;99.90
52621;DHT22;38515;53.160;6.990;2022-08-19T15:30:59;23.60;99.90
52621;DHT22;38515;53.160;6.990;2022-08-19T15:33:25;23.60;99.90
52621;DHT22;38515;53.160;6.990;2022-08-19T15:35:51;23.40;99.90
52621;DHT22;38515;53.160;6.990;2022-08-19T15:38:19;23.40;99.90
52621;DHT22;38515;53.160;6.990;2022-08-19T15:40:48;23.30;99.90
52621;DHT22;38515;53.160;6.990;2022-08-19T15:43:15;23.30;99.90
52621;DHT22;38515;53.160;6.990;2022-08-19T15:45:43;23.10;99.90